Terminal Aerodrome Forecast
Issued by NWS

Home | Current Version | Previous Version | Text Only | Print | Product List | Glossary On
Versions: 1 2 3 4 5 6 7 8 9 10 11 12 13 14 15 16 17 18 19 20 21
952
FTUS43 KAPX 292332
TAFMBL
TAF
KMBL 292332Z 3000/3024 23004KT P6SM FEW250
     FM300200 00000KT P6SM FEW250
     FM300600 00000KT 3SM BR SCT250
     FM301200 00000KT P6SM BKN200
     FM301500 26006KT P6SM VCSH SCT050 BKN150
     FM302100 29006KT P6SM VCSH SCT050 BKN120=

USA.gov is the U.S. government's official web portal to all federal, state and local government web resources and services.